createdAt,value
2022-08-12T00:02:03.917Z,3.72
2022-08-12T00:04:04.617Z,3.42
2022-08-12T00:06:26.683Z,3.58
2022-08-12T00:08:55.159Z,3.20
2022-08-12T00:11:17.538Z,3.40
2022-08-12T00:13:39.319Z,3.80
2022-08-12T00:16:02.491Z,3.50
2022-08-12T00:18:24.696Z,4.00
2022-08-12T00:20:46.476Z,4.15
2022-08-12T00:23:08.973Z,3.80
2022-08-12T00:26:05.701Z,4.28
2022-08-12T00:28:15.033Z,4.00
2022-08-12T00:30:36.724Z,3.65
2022-08-12T00:32:59.457Z,4.45
2022-08-12T00:35:27.487Z,3.92
2022-08-12T00:37:58.473Z,4.07
2022-08-12T00:40:21.175Z,4.25
2022-08-12T00:42:27.187Z,4.03
2022-08-12T00:44:34.098Z,3.90
2022-08-12T00:46:58.391Z,3.80
2022-08-12T00:49:04.234Z,3.78
2022-08-12T00:51:10.539Z,3.75
2022-08-12T00:53:16.253Z,3.90
2022-08-12T00:55:23.891Z,3.78
2022-08-12T00:57:33.017Z,4.38
2022-08-12T00:59:38.452Z,4.53
2022-08-12T01:02:10.361Z,3.80
2022-08-12T01:04:32.148Z,4.38
2022-08-12T01:06:57.911Z,4.43
2022-08-12T01:09:19.679Z,4.22
2022-08-12T01:11:33.293Z,4.20
2022-08-12T01:13:42.666Z,4.07
2022-08-12T01:15:49.485Z,4.80
2022-08-12T01:17:54.363Z,4.10
2022-08-12T01:20:04.408Z,4.93
2022-08-12T01:25:04.943Z,4.40
2022-08-12T01:27:12.164Z,4.30
2022-08-12T01:29:21.103Z,4.75
2022-08-12T01:31:27.064Z,4.88
2022-08-12T01:33:35.753Z,4.70
2022-08-12T01:35:46.134Z,4.80
2022-08-12T01:38:14.822Z,4.10
2022-08-12T01:40:31.555Z,4.60
2022-08-12T01:42:46.230Z,4.65
2022-08-12T01:44:52.679Z,4.30
2022-08-12T01:47:05.999Z,4.82
2022-08-12T01:49:26.413Z,5.15
2022-08-12T01:52:21.160Z,4.47
2022-08-12T01:54:06.977Z,4.47
2022-08-12T01:56:14.617Z,4.93
2022-08-12T01:58:29.113Z,4.75
2022-08-12T02:00:55.367Z,4.95
2022-08-12T02:03:13.159Z,5.25
2022-08-12T02:05:53.053Z,4.65
2022-08-12T02:10:54.292Z,4.07
2022-08-12T02:13:48.978Z,5.35
2022-08-12T02:16:00.437Z,4.90
2022-08-12T02:18:22.565Z,4.50
2022-08-12T02:20:50.901Z,5.22
2022-08-12T02:22:57.882Z,5.00
2022-08-12T02:25:09.834Z,4.97
2022-08-12T02:27:17.163Z,4.57
2022-08-12T02:29:23.566Z,5.22
2022-08-12T02:31:30.893Z,4.38
2022-08-12T02:33:37.792Z,4.97
2022-08-12T02:35:42.577Z,5.35
2022-08-12T02:37:48.134Z,4.82
2022-08-12T02:39:58.182Z,4.72
2022-08-12T02:42:07.117Z,4.68
2022-08-12T02:44:12.885Z,4.65
2022-08-12T02:46:24.295Z,4.35
2022-08-12T02:48:32.755Z,4.93
2022-08-12T02:50:46.352Z,5.35
2022-08-12T02:52:52.462Z,5.20
2022-08-12T02:55:03.651Z,6.07
2022-08-12T02:57:08.077Z,6.07
2022-08-12T02:59:16.985Z,5.20
2022-08-12T03:03:34.057Z,5.00
2022-08-12T03:05:52.370Z,5.53
2022-08-12T03:08:01.335Z,5.93
2022-08-12T03:10:15.802Z,5.22
2022-08-12T03:12:25.389Z,5.40
2022-08-12T03:14:30.989Z,5.30
2022-08-12T03:16:36.969Z,5.20
2022-08-12T03:18:46.052Z,6.03
2022-08-12T03:20:50.935Z,6.25
2022-08-12T03:22:55.685Z,5.53
2022-08-12T03:25:05.568Z,6.00
2022-08-12T03:27:11.598Z,5.40
2022-08-12T03:29:18.989Z,5.35
2022-08-12T03:31:26.358Z,6.15
2022-08-12T03:33:37.415Z,5.13
2022-08-12T03:35:47.466Z,5.80
2022-08-12T03:39:56.543Z,5.30
2022-08-12T03:42:04.376Z,5.50
2022-08-12T03:44:32.059Z,5.70
2022-08-12T03:46:58.466Z,5.15
2022-08-12T03:49:21.682Z,5.20
2022-08-12T03:51:44.908Z,5.13
2022-08-12T03:54:06.969Z,5.43
2022-08-12T03:56:28.462Z,5.10
2022-08-12T03:58:50.198Z,5.05
2022-08-12T04:00:54.821Z,5.07
2022-08-12T04:03:01.778Z,5.75
2022-08-12T04:05:09.648Z,5.25
2022-08-12T04:07:14.413Z,4.70
2022-08-12T04:09:21.593Z,4.93
2022-08-12T04:11:49.009Z,5.18
2022-08-12T04:13:53.309Z,5.00
2022-08-12T04:15:58.694Z,5.25
2022-08-12T04:18:06.531Z,4.85
2022-08-12T04:20:13.772Z,5.20
2022-08-12T04:22:18.121Z,4.72
2022-08-12T04:24:25.372Z,4.22
2022-08-12T04:26:30.311Z,4.50
2022-08-12T04:28:35.141Z,4.55
2022-08-12T04:30:40.320Z,4.18
2022-08-12T04:32:45.493Z,4.35
2022-08-12T04:34:50.791Z,4.10
2022-08-12T04:36:57.109Z,4.63
2022-08-12T04:39:02.087Z,4.43
2022-08-12T04:41:07.613Z,4.47
2022-08-12T04:43:59.571Z,4.72
2022-08-12T04:45:39.493Z,4.65
2022-08-12T04:47:44.135Z,4.28
2022-08-12T04:49:49.910Z,4.78
2022-08-12T04:51:59.179Z,4.05
2022-08-12T04:56:10.953Z,4.40
2022-08-12T04:58:15.262Z,4.65
2022-08-12T05:00:37.934Z,4.07
2022-08-12T05:02:42.442Z,4.30
2022-08-12T05:04:48.718Z,4.63
2022-08-12T05:06:52.971Z,4.75
2022-08-12T05:08:59.898Z,4.20
2022-08-12T05:11:06.122Z,5.60
2022-08-12T05:13:14.473Z,4.70
2022-08-12T05:15:27.724Z,5.10
2022-08-12T05:17:34.020Z,5.25
2022-08-12T05:19:39.475Z,5.38
2022-08-12T05:21:48.158Z,4.38
2022-08-12T05:23:52.594Z,5.50
2022-08-12T05:25:59.305Z,5.68
2022-08-12T05:28:06.070Z,4.50
2022-08-12T05:30:11.670Z,4.97
2022-08-12T05:32:20.679Z,4.57
2022-08-12T05:34:26.805Z,4.43
2022-08-12T05:36:31.295Z,5.05
2022-08-12T05:38:54.031Z,4.10
2022-08-12T05:40:59.776Z,4.35
2022-08-12T05:43:04.331Z,4.45
2022-08-12T05:45:10.082Z,4.25
2022-08-12T05:47:14.861Z,3.95
2022-08-12T05:49:19.223Z,3.70
2022-08-12T05:51:29.993Z,3.72
2022-08-12T05:53:45.556Z,3.60
2022-08-12T05:55:53.490Z,3.60
2022-08-12T05:57:59.425Z,3.33
2022-08-12T06:00:04.430Z,4.05
2022-08-12T06:02:15.880Z,3.17
2022-08-12T06:04:20.608Z,3.45
2022-08-12T06:06:27.775Z,3.28
2022-08-12T06:08:32.384Z,3.80
2022-08-12T06:10:37.939Z,3.20
2022-08-12T06:12:42.475Z,3.30
2022-08-12T06:14:48.338Z,3.05
2022-08-12T06:16:53.067Z,3.13
2022-08-12T06:18:57.356Z,2.90
2022-08-12T06:21:02.421Z,3.00
2022-08-12T06:23:06.969Z,3.03
2022-08-12T06:25:17.530Z,3.13
2022-08-12T06:27:23.460Z,2.60
2022-08-12T06:30:07.041Z,3.33
2022-08-12T06:31:53.516Z,3.17
2022-08-12T06:35:17.058Z,3.72
2022-08-12T06:36:29.575Z,3.20
2022-08-12T06:38:34.657Z,2.80
2022-08-12T06:40:56.287Z,3.03
2022-08-12T06:43:00.649Z,3.15
2022-08-12T06:45:07.267Z,3.33
2022-08-12T06:47:19.946Z,2.88
2022-08-12T06:49:24.723Z,2.83
2022-08-12T06:51:31.109Z,2.80
2022-08-12T06:53:35.416Z,2.88
2022-08-12T06:55:58.177Z,2.88
2022-08-12T06:58:07.954Z,2.75
2022-08-12T07:00:16.060Z,3.08
2022-08-12T07:02:25.957Z,2.60
2022-08-12T07:04:38.651Z,2.58
2022-08-12T07:06:45.012Z,2.38
2022-08-12T07:08:49.887Z,2.92
2022-08-12T07:10:59.264Z,2.70
2022-08-12T07:13:03.839Z,3.05
2022-08-12T07:15:09.060Z,2.90
2022-08-12T07:17:13.301Z,2.92
2022-08-12T07:19:20.502Z,2.80
2022-08-12T07:22:00.119Z,2.63
2022-08-12T07:23:50.512Z,2.92
2022-08-12T07:25:58.343Z,3.30
2022-08-12T07:28:14.117Z,2.70
2022-08-12T07:30:21.140Z,3.03
2022-08-12T07:32:29.377Z,2.65
2022-08-12T07:34:36.497Z,2.50
2022-08-12T07:36:40.810Z,2.80
2022-08-12T07:38:48.205Z,2.90
2022-08-12T07:40:55.374Z,3.47
2022-08-12T07:42:59.946Z,2.47
2022-08-12T07:45:04.798Z,2.92
2022-08-12T07:47:08.971Z,2.60
2022-08-12T07:49:17.815Z,2.78
2022-08-12T07:51:25.915Z,2.70
2022-08-12T07:53:30.227Z,3.10
2022-08-12T07:55:35.172Z,3.10
2022-08-12T07:57:50.645Z,2.78
2022-08-12T07:59:55.697Z,3.40
2022-08-12T08:02:01.247Z,3.30
2022-08-12T08:04:24.424Z,2.78
2022-08-12T08:06:31.904Z,2.78
2022-08-12T08:08:38.681Z,2.92
2022-08-12T08:10:43.536Z,3.20
2022-08-12T08:12:58.250Z,2.78
2022-08-12T08:15:02.494Z,3.08
2022-08-12T08:17:06.979Z,2.63
2022-08-12T08:19:15.815Z,2.80
2022-08-12T08:21:22.082Z,3.30
2022-08-12T08:23:56.238Z,2.92
2022-08-12T08:26:01.730Z,3.60
2022-08-12T08:28:09.027Z,2.78
2022-08-12T08:30:14.400Z,3.30
2022-08-12T08:32:18.660Z,2.83
2022-08-12T08:34:40.132Z,3.13
2022-08-12T08:36:51.795Z,2.70
2022-08-12T08:38:58.908Z,3.28
2022-08-12T08:42:15.372Z,2.72
2022-08-12T08:43:46.384Z,2.80
2022-08-12T08:45:51.171Z,2.75
2022-08-12T08:48:00.428Z,2.88
2022-08-12T08:50:05.059Z,3.25
2022-08-12T08:52:11.340Z,2.83
2022-08-12T08:54:17.394Z,3.63
2022-08-12T08:56:21.869Z,2.95
2022-08-12T08:58:29.219Z,2.95
2022-08-12T09:00:34.224Z,2.88
2022-08-12T09:02:41.592Z,3.58
2022-08-12T09:05:12.213Z,3.20
2022-08-12T09:07:51.511Z,2.85
2022-08-12T09:10:02.097Z,2.63
2022-08-12T09:12:27.571Z,3.03
2022-08-12T09:14:32.191Z,2.97
2022-08-12T09:16:42.643Z,3.30
2022-08-12T09:18:47.618Z,3.05
2022-08-12T09:20:57.423Z,2.67
2022-08-12T09:23:57.243Z,3.33
2022-08-12T09:25:34.665Z,2.97
2022-08-12T09:28:04.229Z,2.88
2022-08-12T09:30:10.221Z,3.63
2022-08-12T09:32:31.420Z,2.88
2022-08-12T09:34:50.762Z,2.87
2022-08-12T09:40:00.463Z,2.90
2022-08-12T09:42:08.801Z,3.00
2022-08-12T09:44:38.278Z,3.00
2022-08-12T09:46:45.625Z,3.10
2022-08-12T09:48:55.839Z,2.92
2022-08-12T09:51:01.861Z,3.17
2022-08-12T09:53:15.545Z,3.20
2022-08-12T09:55:59.634Z,2.70
2022-08-12T09:58:45.672Z,3.15
2022-08-12T10:00:19.396Z,3.05
2022-08-12T10:02:43.406Z,4.35
2022-08-12T10:04:51.320Z,3.28
2022-08-12T10:06:57.804Z,3.78
2022-08-12T10:09:02.604Z,3.35
2022-08-12T10:11:26.943Z,3.17
2022-08-12T10:13:43.285Z,3.13
2022-08-12T10:16:01.743Z,3.15
2022-08-12T10:18:08.703Z,3.10
2022-08-12T10:20:13.154Z,3.30
2022-08-12T10:22:40.458Z,3.58
2022-08-12T10:25:17.306Z,2.97
2022-08-12T10:28:04.013Z,2.88
2022-08-12T10:30:41.036Z,2.85
2022-08-12T10:32:44.474Z,3.28
2022-08-12T10:34:57.071Z,3.13
2022-08-12T10:37:22.546Z,2.97
2022-08-12T10:40:02.150Z,3.55
2022-08-12T10:42:15.067Z,3.72
2022-08-12T10:44:22.393Z,3.63
2022-08-12T10:46:31.377Z,3.22
2022-08-12T10:48:36.260Z,3.20
2022-08-12T10:51:02.562Z,3.08
2022-08-12T10:53:10.098Z,2.78
2022-08-12T10:55:15.048Z,3.30
2022-08-12T10:58:15.561Z,3.03
2022-08-12T11:00:30.363Z,3.30
2022-08-12T11:04:20.568Z,3.10
2022-08-12T11:04:49.370Z,2.97
2022-08-12T11:07:07.640Z,3.17
2022-08-12T11:09:41.686Z,3.00
2022-08-12T11:12:36.017Z,3.15
2022-08-12T11:14:48.208Z,3.28
2022-08-12T11:16:33.983Z,3.22
2022-08-12T11:18:41.167Z,3.08
2022-08-12T11:20:45.475Z,2.67
2022-08-12T11:22:58.831Z,3.42
2022-08-12T11:25:10.453Z,3.40
2022-08-12T11:27:15.827Z,3.55
2022-08-12T11:29:26.097Z,3.53
2022-08-12T11:31:30.445Z,3.53
2022-08-12T11:34:05.822Z,3.13
2022-08-12T11:36:22.475Z,3.53
2022-08-12T11:38:26.921Z,3.10
2022-08-12T11:40:32.163Z,3.60
2022-08-12T11:42:46.957Z,3.47
2022-08-12T11:44:51.454Z,3.60
2022-08-12T11:46:56.532Z,3.33
2022-08-12T11:49:02.361Z,3.38
2022-08-12T11:51:08.288Z,3.00
2022-08-12T11:53:58.282Z,3.10
2022-08-12T11:55:46.843Z,3.33
2022-08-12T11:58:46.118Z,3.13
2022-08-12T12:02:44.151Z,3.05
2022-08-12T12:04:53.872Z,3.25
2022-08-12T12:07:06.617Z,3.15
2022-08-12T12:09:12.039Z,2.50
2022-08-12T12:11:16.383Z,3.05
2022-08-12T12:14:07.630Z,3.10
2022-08-12T12:15:47.745Z,2.60
2022-08-12T12:17:55.911Z,2.75
2022-08-12T12:20:01.824Z,3.45
2022-08-12T12:22:06.125Z,2.90
2022-08-12T12:24:11.474Z,3.28
2022-08-12T12:26:34.688Z,2.58
2022-08-12T12:28:54.493Z,2.50
2022-08-12T12:30:59.547Z,3.03
2022-08-12T12:33:04.042Z,2.65
2022-08-12T12:35:14.456Z,3.00
2022-08-12T12:38:03.540Z,2.80
2022-08-12T12:40:01.127Z,3.00
2022-08-12T12:42:43.379Z,3.35
2022-08-12T12:44:38.628Z,3.53
2022-08-12T12:46:51.313Z,3.17
2022-08-12T12:49:02.063Z,2.95
2022-08-12T12:51:48.827Z,3.00
2022-08-12T12:54:08.415Z,2.78
2022-08-12T12:56:16.042Z,3.28
2022-08-12T12:58:20.856Z,2.80
2022-08-12T13:00:25.083Z,2.42
2022-08-12T13:02:31.219Z,2.72
2022-08-12T13:04:37.374Z,2.97
2022-08-12T13:06:43.596Z,2.80
2022-08-12T13:08:47.909Z,3.10
2022-08-12T13:10:55.167Z,2.95
2022-08-12T13:14:07.309Z,2.95
2022-08-12T13:15:43.316Z,2.70
2022-08-12T13:18:02.315Z,3.03
2022-08-12T13:20:08.742Z,3.00
2022-08-12T13:22:18.754Z,2.80
2022-08-12T13:24:23.206Z,2.92
2022-08-12T13:26:34.852Z,3.00
2022-08-12T13:28:53.114Z,2.83
2022-08-12T13:30:59.498Z,3.08
2022-08-12T13:33:04.077Z,3.33
2022-08-12T13:35:20.135Z,2.92
2022-08-12T13:37:43.642Z,3.63
2022-08-12T13:39:57.929Z,3.10
2022-08-12T13:42:02.350Z,3.53
2022-08-12T13:44:10.613Z,3.72
2022-08-12T13:46:16.396Z,3.10
2022-08-12T13:48:20.584Z,3.55
2022-08-12T13:50:29.923Z,3.30
2022-08-12T13:52:36.876Z,3.42
2022-08-12T13:54:41.301Z,4.07
2022-08-12T13:56:50.070Z,3.30
2022-08-12T13:58:55.764Z,3.33
2022-08-12T14:01:05.783Z,3.72
2022-08-12T14:03:12.591Z,3.45
2022-08-12T14:05:37.426Z,3.70
2022-08-12T14:07:57.028Z,3.15
2022-08-12T14:10:24.095Z,3.22
2022-08-12T14:12:39.584Z,3.22
2022-08-12T14:14:59.062Z,3.78
2022-08-12T14:17:10.413Z,3.30
2022-08-12T14:19:22.265Z,3.50
2022-08-12T14:21:30.118Z,3.20
2022-08-12T14:24:04.705Z,3.17
2022-08-12T14:26:20.533Z,3.53
2022-08-12T14:28:26.048Z,3.22
2022-08-12T14:30:30.632Z,3.60
2022-08-12T14:32:36.082Z,3.20
2022-08-12T14:34:40.371Z,3.65
2022-08-12T14:36:48.321Z,3.22
2022-08-12T14:38:54.337Z,3.40
2022-08-12T14:41:02.153Z,3.03
2022-08-12T14:43:06.515Z,3.33
2022-08-12T14:45:12.658Z,3.15
2022-08-12T14:47:16.993Z,3.13
2022-08-12T14:50:01.381Z,3.10
2022-08-12T14:52:48.513Z,3.28
2022-08-12T14:56:58.570Z,4.20
2022-08-12T14:59:20.340Z,4.07
2022-08-12T15:01:40.296Z,4.20
2022-08-12T15:03:52.884Z,5.38
2022-08-12T15:06:06.273Z,4.40
2022-08-12T15:08:30.727Z,3.78
2022-08-12T15:10:37.305Z,3.90
2022-08-12T15:12:43.174Z,4.60
2022-08-12T15:14:47.692Z,5.20
2022-08-12T15:16:54.973Z,5.03
2022-08-12T15:18:59.543Z,5.80
2022-08-12T15:21:11.454Z,5.50
2022-08-12T15:23:18.099Z,5.88
2022-08-12T15:25:25.941Z,5.25
2022-08-12T15:27:31.833Z,5.97
2022-08-12T15:29:57.007Z,5.45
2022-08-12T15:32:07.697Z,6.53
2022-08-12T15:34:19.926Z,5.97
2022-08-12T15:36:54.082Z,5.88
2022-08-12T15:38:50.242Z,6.72
2022-08-12T15:40:55.494Z,5.30
2022-08-12T15:43:00.785Z,6.10
2022-08-12T15:45:10.519Z,6.25
2022-08-12T15:48:16.783Z,6.40
2022-08-12T15:50:58.774Z,6.43
2022-08-12T15:54:30.737Z,6.72
2022-08-12T15:56:40.004Z,6.28
2022-08-12T15:58:47.891Z,6.30
2022-08-12T16:00:54.948Z,6.47
2022-08-12T16:07:31.169Z,13.07
2022-08-12T16:10:04.876Z,13.63
2022-08-12T16:12:16.843Z,14.15
2022-08-12T16:14:29.643Z,14.38
2022-08-12T16:16:42.428Z,13.65
2022-08-12T16:18:47.145Z,14.00
2022-08-12T16:20:52.628Z,13.75
2022-08-12T16:23:04.266Z,12.82
2022-08-12T16:25:10.293Z,14.20
2022-08-12T16:27:14.707Z,13.68
2022-08-12T16:29:38.632Z,13.48
2022-08-12T16:31:59.732Z,13.38
2022-08-12T16:34:25.975Z,14.35
2022-08-12T16:36:35.947Z,13.20
2022-08-12T16:38:40.765Z,12.95
2022-08-12T16:40:50.493Z,13.27
2022-08-12T16:43:02.065Z,12.80
2022-08-12T16:45:13.726Z,12.77
2022-08-12T16:47:19.703Z,12.63
2022-08-12T16:49:55.186Z,12.65
2022-08-12T16:52:02.711Z,12.15
2022-08-12T16:54:14.155Z,13.30
2022-08-12T16:56:20.657Z,11.70
2022-08-12T16:58:30.786Z,11.82
2022-08-12T17:00:35.147Z,12.18
2022-08-12T17:02:41.452Z,11.85
2022-08-12T17:04:52.860Z,12.57
2022-08-12T17:06:57.710Z,12.40
2022-08-12T17:09:08.433Z,12.27
2022-08-12T17:11:21.061Z,11.88
2022-08-12T17:13:26.419Z,12.85
2022-08-12T17:15:57.247Z,12.63
2022-08-12T17:18:15.237Z,12.70
2022-08-12T17:20:34.597Z,11.23
2022-08-12T17:22:43.448Z,12.30
2022-08-12T17:24:54.794Z,11.02
2022-08-12T17:27:09.633Z,12.50
2022-08-12T17:29:32.082Z,11.63
2022-08-12T17:32:01.101Z,11.57
2022-08-12T17:34:28.945Z,12.15
2022-08-12T17:36:32.397Z,11.23
2022-08-12T17:38:36.791Z,11.40
2022-08-12T17:40:46.681Z,12.20
2022-08-12T17:42:50.991Z,12.02
2022-08-12T17:45:00.766Z,12.48
2022-08-12T17:47:06.539Z,12.23
2022-08-12T17:50:02.914Z,11.90
2022-08-12T17:51:50.552Z,12.15
2022-08-12T17:54:10.708Z,11.52
2022-08-12T17:56:18.507Z,12.00
2022-08-12T17:58:35.660Z,11.52
2022-08-12T18:00:50.678Z,12.48
2022-08-12T18:03:01.503Z,12.13
2022-08-12T18:05:10.691Z,12.52
2022-08-12T18:07:17.682Z,11.50
2022-08-12T18:09:24.630Z,12.63
2022-08-12T18:12:03.172Z,12.60
2022-08-12T18:14:12.880Z,13.07
2022-08-12T18:16:29.221Z,13.00
2022-08-12T18:18:34.729Z,11.57
2022-08-12T18:20:44.738Z,12.98
2022-08-12T18:22:55.897Z,12.93
2022-08-12T18:25:03.850Z,12.30
2022-08-12T18:27:28.135Z,13.00
2022-08-12T18:29:43.056Z,11.90
2022-08-12T18:31:59.850Z,13.70
2022-08-12T18:34:07.745Z,13.45
2022-08-12T18:36:22.555Z,12.68
2022-08-12T18:38:28.386Z,13.60
2022-08-12T18:40:50.196Z,12.90
2022-08-12T18:42:57.035Z,12.15
2022-08-12T18:45:05.580Z,12.68
2022-08-12T18:47:15.964Z,12.40
2022-08-12T18:49:28.016Z,13.75
2022-08-12T18:51:45.911Z,13.75
2022-08-12T18:54:06.551Z,13.07
2022-08-12T18:56:33.570Z,13.70
2022-08-12T18:58:39.138Z,13.50
2022-08-12T19:01:04.340Z,14.43
2022-08-12T19:03:38.589Z,13.00
2022-08-12T19:05:54.031Z,12.93
2022-08-12T19:08:02.475Z,13.75
2022-08-12T19:10:11.492Z,13.15
2022-08-12T19:12:33.615Z,13.77
2022-08-12T19:14:40.348Z,15.10
2022-08-12T19:16:44.795Z,13.25
2022-08-12T19:18:55.278Z,14.98
2022-08-12T19:21:12.049Z,14.05
2022-08-12T19:23:22.492Z,14.60
2022-08-12T19:25:59.286Z,14.13
2022-08-12T19:27:59.737Z,14.57
2022-08-12T19:30:06.233Z,15.75
2022-08-12T19:32:12.419Z,14.73
2022-08-12T19:34:37.721Z,15.18
2022-08-12T19:36:45.660Z,15.40
2022-08-12T19:38:56.636Z,16.00
2022-08-12T19:41:05.487Z,14.30
2022-08-12T19:43:19.578Z,15.07
2022-08-12T19:45:43.315Z,15.55
2022-08-12T19:47:50.159Z,16.45
2022-08-12T19:49:57.636Z,15.30
2022-08-12T19:52:02.175Z,15.82
2022-08-12T19:54:09.731Z,15.85
2022-08-12T19:56:18.035Z,15.95
2022-08-12T19:58:29.545Z,16.20
2022-08-12T20:00:35.365Z,17.38
2022-08-12T20:02:39.951Z,16.23
2022-08-12T20:04:49.391Z,15.43
2022-08-12T20:07:23.488Z,17.05
2022-08-12T20:09:38.795Z,15.88
2022-08-12T20:12:09.829Z,16.05
2022-08-12T20:14:12.232Z,16.08
2022-08-12T20:16:45.488Z,15.95
2022-08-12T20:18:44.173Z,17.02
2022-08-12T20:20:57.402Z,15.48
2022-08-12T20:23:08.601Z,16.08
2022-08-12T20:25:17.595Z,16.17
2022-08-12T20:28:05.136Z,15.55
2022-08-12T20:30:01.159Z,16.02
2022-08-12T20:32:09.593Z,15.90
2022-08-12T20:34:15.914Z,16.60
2022-08-12T20:36:41.237Z,14.93
2022-08-12T20:38:47.610Z,16.33
2022-08-12T20:40:54.391Z,15.80
2022-08-12T20:42:59.099Z,15.45
2022-08-12T20:45:04.942Z,16.38
2022-08-12T20:47:19.691Z,15.75
2022-08-12T20:49:25.650Z,15.77
2022-08-12T20:51:50.930Z,15.73
2022-08-12T20:54:03.467Z,15.30
2022-08-12T20:56:22.423Z,14.75
2022-08-12T20:58:36.862Z,15.68
2022-08-12T21:00:41.703Z,15.98
2022-08-12T21:02:49.774Z,16.17
2022-08-12T21:05:16.052Z,16.05
2022-08-12T21:07:23.603Z,15.50
2022-08-12T21:09:31.723Z,15.23
2022-08-12T21:11:37.780Z,15.70
2022-08-12T21:13:42.606Z,15.00
2022-08-12T21:15:54.588Z,15.07
2022-08-12T21:18:11.118Z,15.43
2022-08-12T21:20:26.264Z,15.93
2022-08-12T21:22:33.441Z,14.70
2022-08-12T21:24:46.729Z,14.95
2022-08-12T21:26:55.083Z,15.35
2022-08-12T21:29:01.886Z,15.48
2022-08-12T21:32:39.478Z,16.08
2022-08-12T21:33:58.548Z,15.63
2022-08-12T21:36:22.251Z,15.77
2022-08-12T21:38:40.487Z,16.40
2022-08-12T21:40:52.165Z,15.57
2022-08-12T21:43:00.639Z,14.48
2022-08-12T21:45:45.337Z,15.38
2022-08-12T21:47:31.205Z,15.02
2022-08-12T21:49:53.897Z,16.02
2022-08-12T21:52:00.328Z,15.05
2022-08-12T21:54:09.828Z,15.65
2022-08-12T21:56:34.356Z,15.23
2022-08-12T21:58:42.174Z,14.82
2022-08-12T22:00:46.529Z,15.20
2022-08-12T22:03:09.674Z,16.02
2022-08-12T22:05:46.764Z,15.13
2022-08-12T22:07:55.294Z,14.90
2022-08-12T22:10:02.965Z,15.20
2022-08-12T22:12:25.063Z,14.18
2022-08-12T22:14:33.645Z,15.55
2022-08-12T22:16:38.193Z,15.65
2022-08-12T22:18:52.454Z,15.15
2022-08-12T22:20:57.465Z,16.25
2022-08-12T22:23:02.532Z,15.70
2022-08-12T22:25:10.140Z,15.13
2022-08-12T22:27:32.427Z,15.55
2022-08-12T22:30:01.038Z,14.40
2022-08-12T22:32:08.288Z,16.38
2022-08-12T22:34:18.116Z,15.70
2022-08-12T22:36:29.097Z,16.45
2022-08-12T22:38:34.958Z,15.25
2022-08-12T22:40:39.880Z,15.43
2022-08-12T22:43:06.123Z,15.90
2022-08-12T22:45:30.201Z,15.45
2022-08-12T22:47:53.514Z,15.63
2022-08-12T22:50:03.763Z,15.30
2022-08-12T22:52:10.579Z,14.73
2022-08-12T22:54:36.125Z,14.98
2022-08-12T22:56:39.548Z,14.98
2022-08-12T22:58:46.317Z,15.35
2022-08-12T23:00:53.420Z,15.65
2022-08-12T23:03:02.633Z,16.05
2022-08-12T23:05:10.772Z,14.73
2022-08-12T23:07:15.815Z,15.55
2022-08-12T23:09:23.309Z,16.02
2022-08-12T23:11:36.236Z,15.60
2022-08-12T23:13:55.374Z,15.70
2022-08-12T23:16:02.496Z,14.77
2022-08-12T23:18:14.481Z,15.73
2022-08-12T23:20:27.005Z,15.90
2022-08-12T23:22:36.468Z,15.68
2022-08-12T23:24:55.625Z,14.77
2022-08-12T23:29:29.410Z,14.57
2022-08-12T23:32:02.765Z,15.80
2022-08-12T23:36:12.743Z,14.63
2022-08-12T23:40:36.776Z,15.32
2022-08-12T23:42:44.227Z,14.95
2022-08-12T23:44:53.498Z,15.10
2022-08-12T23:47:06.398Z,15.37
2022-08-12T23:49:26.792Z,15.50
2022-08-12T23:51:38.737Z,15.85
2022-08-12T23:53:46.100Z,15.68
2022-08-12T23:55:50.818Z,15.70
2022-08-12T23:58:21.615Z,15.25
